sensor_id;sensor_type;location;lat;lon;timestamp;P1;durP1;ratioP1;P2;durP2;ratioP2
65073;SDS011;52218;51.224;-2.328;2022-07-30T00:01:16;2.53;;;0.70;;
65073;SDS011;52218;51.224;-2.328;2022-07-30T00:04:58;2.80;;;0.80;;
65073;SDS011;52218;51.224;-2.328;2022-07-30T00:08:40;5.38;;;1.63;;
65073;SDS011;52218;51.224;-2.328;2022-07-30T00:12:22;3.13;;;1.00;;
65073;SDS011;52218;51.224;-2.328;2022-07-30T00:16:04;1.90;;;0.90;;
65073;SDS011;52218;51.224;-2.328;2022-07-30T00:19:46;2.83;;;1.10;;
65073;SDS011;52218;51.224;-2.328;2022-07-30T00:23:28;2.42;;;1.23;;
65073;SDS011;52218;51.224;-2.328;2022-07-30T00:27:12;4.63;;;1.17;;
65073;SDS011;52218;51.224;-2.328;2022-07-30T00:30:54;2.53;;;1.10;;
65073;SDS011;52218;51.224;-2.328;2022-07-30T00:34:36;2.63;;;1.23;;
65073;SDS011;52218;51.224;-2.328;2022-07-30T00:38:18;3.03;;;1.10;;
65073;SDS011;52218;51.224;-2.328;2022-07-30T00:42:01;4.72;;;1.20;;
65073;SDS011;52218;51.224;-2.328;2022-07-30T00:45:44;2.40;;;1.30;;
65073;SDS011;52218;51.224;-2.328;2022-07-30T00:49:26;1.80;;;1.00;;
65073;SDS011;52218;51.224;-2.328;2022-07-30T00:53:08;2.35;;;1.20;;
65073;SDS011;52218;51.224;-2.328;2022-07-30T00:56:50;1.88;;;1.02;;
65073;SDS011;52218;51.224;-2.328;2022-07-30T01:00:32;2.33;;;1.10;;
65073;SDS011;52218;51.224;-2.328;2022-07-30T01:04:14;2.83;;;1.30;;
65073;SDS011;52218;51.224;-2.328;2022-07-30T01:07:56;1.70;;;1.30;;
65073;SDS011;52218;51.224;-2.328;2022-07-30T01:11:40;3.50;;;1.05;;
65073;SDS011;52218;51.224;-2.328;2022-07-30T01:15:23;2.28;;;1.20;;
65073;SDS011;52218;51.224;-2.328;2022-07-30T01:19:12;3.53;;;1.30;;
65073;SDS011;52218;51.224;-2.328;2022-07-30T01:23:30;2.28;;;1.20;;
65073;SDS011;52218;51.224;-2.328;2022-07-30T01:27:20;2.60;;;1.13;;
65073;SDS011;52218;51.224;-2.328;2022-07-30T01:31:03;6.70;;;1.25;;
65073;SDS011;52218;51.224;-2.328;2022-07-30T01:34:47;4.10;;;1.58;;
65073;SDS011;52218;51.224;-2.328;2022-07-30T01:38:30;2.35;;;1.35;;
65073;SDS011;52218;51.224;-2.328;2022-07-30T01:42:15;2.53;;;1.25;;
65073;SDS011;52218;51.224;-2.328;2022-07-30T01:45:59;1.80;;;1.38;;
65073;SDS011;52218;51.224;-2.328;2022-07-30T01:49:44;2.33;;;1.38;;
65073;SDS011;52218;51.224;-2.328;2022-07-30T01:53:28;4.00;;;1.60;;
65073;SDS011;52218;51.224;-2.328;2022-07-30T01:57:13;1.77;;;1.25;;
65073;SDS011;52218;51.224;-2.328;2022-07-30T02:00:56;5.78;;;1.70;;
65073;SDS011;52218;51.224;-2.328;2022-07-30T02:04:39;2.47;;;1.50;;
65073;SDS011;52218;51.224;-2.328;2022-07-30T02:08:43;3.63;;;1.42;;
65073;SDS011;52218;51.224;-2.328;2022-07-30T02:12:44;4.30;;;1.80;;
65073;SDS011;52218;51.224;-2.328;2022-07-30T02:16:30;1.63;;;1.35;;
65073;SDS011;52218;51.224;-2.328;2022-07-30T02:20:17;2.45;;;1.60;;
65073;SDS011;52218;51.224;-2.328;2022-07-30T02:24:07;2.10;;;1.60;;
65073;SDS011;52218;51.224;-2.328;2022-07-30T02:27:55;4.60;;;1.50;;
65073;SDS011;52218;51.224;-2.328;2022-07-30T02:31:42;2.42;;;1.50;;
65073;SDS011;52218;51.224;-2.328;2022-07-30T02:35:25;2.20;;;1.50;;
65073;SDS011;52218;51.224;-2.328;2022-07-30T02:39:10;3.30;;;1.63;;
65073;SDS011;52218;51.224;-2.328;2022-07-30T02:42:53;3.50;;;1.83;;
65073;SDS011;52218;51.224;-2.328;2022-07-30T02:46:37;2.30;;;1.63;;
65073;SDS011;52218;51.224;-2.328;2022-07-30T02:50:20;2.60;;;1.90;;
65073;SDS011;52218;51.224;-2.328;2022-07-30T02:54:04;3.47;;;1.83;;
65073;SDS011;52218;51.224;-2.328;2022-07-30T02:57:51;3.63;;;1.65;;
65073;SDS011;52218;51.224;-2.328;2022-07-30T03:01:35;3.47;;;1.80;;
65073;SDS011;52218;51.224;-2.328;2022-07-30T03:05:18;4.18;;;1.80;;
65073;SDS011;52218;51.224;-2.328;2022-07-30T03:09:01;3.05;;;1.50;;
65073;SDS011;52218;51.224;-2.328;2022-07-30T03:12:44;2.63;;;1.63;;
65073;SDS011;52218;51.224;-2.328;2022-07-30T03:16:27;3.55;;;1.60;;
65073;SDS011;52218;51.224;-2.328;2022-07-30T03:20:12;3.05;;;1.77;;
65073;SDS011;52218;51.224;-2.328;2022-07-30T03:23:58;5.22;;;1.60;;
65073;SDS011;52218;51.224;-2.328;2022-07-30T03:27:43;3.05;;;1.70;;
65073;SDS011;52218;51.224;-2.328;2022-07-30T03:31:27;4.53;;;1.70;;
65073;SDS011;52218;51.224;-2.328;2022-07-30T03:35:18;2.72;;;1.48;;
65073;SDS011;52218;51.224;-2.328;2022-07-30T03:39:02;2.80;;;1.63;;
65073;SDS011;52218;51.224;-2.328;2022-07-30T03:42:46;2.00;;;1.35;;
65073;SDS011;52218;51.224;-2.328;2022-07-30T03:46:29;3.67;;;1.83;;
65073;SDS011;52218;51.224;-2.328;2022-07-30T03:50:12;3.67;;;1.63;;
65073;SDS011;52218;51.224;-2.328;2022-07-30T03:53:55;2.97;;;1.60;;
65073;SDS011;52218;51.224;-2.328;2022-07-30T03:57:37;4.10;;;1.80;;
65073;SDS011;52218;51.224;-2.328;2022-07-30T04:01:24;2.97;;;1.80;;
65073;SDS011;52218;51.224;-2.328;2022-07-30T04:05:07;3.53;;;1.67;;
65073;SDS011;52218;51.224;-2.328;2022-07-30T04:08:49;2.55;;;1.48;;
65073;SDS011;52218;51.224;-2.328;2022-07-30T04:12:31;2.38;;;1.60;;
65073;SDS011;52218;51.224;-2.328;2022-07-30T04:16:14;2.97;;;1.90;;
65073;SDS011;52218;51.224;-2.328;2022-07-30T04:20:32;4.90;;;2.10;;
65073;SDS011;52218;51.224;-2.328;2022-07-30T04:24:19;4.10;;;2.00;;
65073;SDS011;52218;51.224;-2.328;2022-07-30T04:28:04;2.72;;;1.60;;
65073;SDS011;52218;51.224;-2.328;2022-07-30T04:31:46;3.40;;;1.88;;
65073;SDS011;52218;51.224;-2.328;2022-07-30T04:35:29;2.38;;;1.67;;
65073;SDS011;52218;51.224;-2.328;2022-07-30T04:39:32;4.40;;;1.58;;
65073;SDS011;52218;51.224;-2.328;2022-07-30T04:43:14;2.78;;;1.88;;
65073;SDS011;52218;51.224;-2.328;2022-07-30T04:46:57;2.10;;;1.80;;
65073;SDS011;52218;51.224;-2.328;2022-07-30T04:50:40;2.40;;;1.80;;
65073;SDS011;52218;51.224;-2.328;2022-07-30T04:54:23;2.63;;;1.92;;
65073;SDS011;52218;51.224;-2.328;2022-07-30T04:58:07;4.00;;;1.80;;
65073;SDS011;52218;51.224;-2.328;2022-07-30T05:01:50;2.40;;;1.67;;
65073;SDS011;52218;51.224;-2.328;2022-07-30T05:05:36;2.65;;;1.88;;
65073;SDS011;52218;51.224;-2.328;2022-07-30T05:09:18;3.55;;;1.77;;
65073;SDS011;52218;51.224;-2.328;2022-07-30T05:13:01;3.67;;;2.17;;
65073;SDS011;52218;51.224;-2.328;2022-07-30T05:16:48;2.45;;;1.80;;
65073;SDS011;52218;51.224;-2.328;2022-07-30T05:20:31;3.05;;;2.00;;
65073;SDS011;52218;51.224;-2.328;2022-07-30T05:24:13;5.13;;;2.10;;
65073;SDS011;52218;51.224;-2.328;2022-07-30T05:27:56;4.13;;;1.77;;
65073;SDS011;52218;51.224;-2.328;2022-07-30T05:31:38;3.83;;;1.80;;
65073;SDS011;52218;51.224;-2.328;2022-07-30T05:35:20;3.88;;;2.10;;
65073;SDS011;52218;51.224;-2.328;2022-07-30T05:39:02;3.25;;;1.92;;
65073;SDS011;52218;51.224;-2.328;2022-07-30T05:42:44;3.47;;;1.90;;
65073;SDS011;52218;51.224;-2.328;2022-07-30T05:46:27;2.50;;;1.80;;
65073;SDS011;52218;51.224;-2.328;2022-07-30T05:50:09;3.97;;;1.95;;
65073;SDS011;52218;51.224;-2.328;2022-07-30T05:53:52;3.67;;;2.00;;
65073;SDS011;52218;51.224;-2.328;2022-07-30T05:57:35;5.15;;;2.15;;
65073;SDS011;52218;51.224;-2.328;2022-07-30T06:01:17;4.05;;;2.00;;
65073;SDS011;52218;51.224;-2.328;2022-07-30T06:04:59;3.20;;;2.03;;
65073;SDS011;52218;51.224;-2.328;2022-07-30T06:08:41;4.05;;;1.90;;
65073;SDS011;52218;51.224;-2.328;2022-07-30T06:12:27;3.05;;;2.00;;
65073;SDS011;52218;51.224;-2.328;2022-07-30T06:16:10;3.15;;;1.75;;
65073;SDS011;52218;51.224;-2.328;2022-07-30T06:19:52;4.57;;;1.80;;
65073;SDS011;52218;51.224;-2.328;2022-07-30T06:23:34;3.30;;;1.80;;
65073;SDS011;52218;51.224;-2.328;2022-07-30T06:27:16;1.95;;;1.58;;
65073;SDS011;52218;51.224;-2.328;2022-07-30T06:30:58;3.28;;;1.80;;
65073;SDS011;52218;51.224;-2.328;2022-07-30T06:34:40;2.28;;;1.65;;
65073;SDS011;52218;51.224;-2.328;2022-07-30T06:38:22;3.70;;;2.00;;
65073;SDS011;52218;51.224;-2.328;2022-07-30T06:42:04;2.50;;;2.00;;
65073;SDS011;52218;51.224;-2.328;2022-07-30T06:45:46;3.35;;;1.83;;
65073;SDS011;52218;51.224;-2.328;2022-07-30T06:49:30;2.20;;;1.63;;
65073;SDS011;52218;51.224;-2.328;2022-07-30T06:53:13;3.15;;;1.88;;
65073;SDS011;52218;51.224;-2.328;2022-07-30T06:56:55;2.42;;;1.70;;
65073;SDS011;52218;51.224;-2.328;2022-07-30T07:00:37;2.72;;;1.50;;
65073;SDS011;52218;51.224;-2.328;2022-07-30T07:04:19;3.85;;;1.65;;
65073;SDS011;52218;51.224;-2.328;2022-07-30T07:08:02;2.13;;;1.50;;
65073;SDS011;52218;51.224;-2.328;2022-07-30T07:11:44;2.40;;;1.73;;
65073;SDS011;52218;51.224;-2.328;2022-07-30T07:15:26;2.38;;;1.73;;
65073;SDS011;52218;51.224;-2.328;2022-07-30T07:19:17;2.03;;;1.58;;
65073;SDS011;52218;51.224;-2.328;2022-07-30T07:23:19;3.53;;;1.65;;
65073;SDS011;52218;51.224;-2.328;2022-07-30T07:27:01;1.90;;;1.70;;
65073;SDS011;52218;51.224;-2.328;2022-07-30T07:30:44;3.10;;;1.77;;
65073;SDS011;52218;51.224;-2.328;2022-07-30T07:34:26;3.03;;;1.75;;
65073;SDS011;52218;51.224;-2.328;2022-07-30T07:38:08;2.13;;;1.80;;
65073;SDS011;52218;51.224;-2.328;2022-07-30T07:41:50;2.28;;;1.50;;
65073;SDS011;52218;51.224;-2.328;2022-07-30T07:45:32;2.83;;;1.70;;
65073;SDS011;52218;51.224;-2.328;2022-07-30T07:49:14;2.78;;;1.58;;
65073;SDS011;52218;51.224;-2.328;2022-07-30T07:52:56;3.33;;;1.50;;
65073;SDS011;52218;51.224;-2.328;2022-07-30T07:56:38;4.75;;;1.65;;
65073;SDS011;52218;51.224;-2.328;2022-07-30T08:00:21;1.77;;;1.50;;
65073;SDS011;52218;51.224;-2.328;2022-07-30T08:04:03;2.42;;;1.52;;
65073;SDS011;52218;51.224;-2.328;2022-07-30T08:07:50;2.72;;;1.50;;
65073;SDS011;52218;51.224;-2.328;2022-07-30T08:11:32;2.90;;;1.45;;
65073;SDS011;52218;51.224;-2.328;2022-07-30T08:15:14;3.67;;;1.80;;
65073;SDS011;52218;51.224;-2.328;2022-07-30T08:19:02;2.40;;;1.38;;
65073;SDS011;52218;51.224;-2.328;2022-07-30T08:22:44;3.20;;;1.65;;
65073;SDS011;52218;51.224;-2.328;2022-07-30T08:26:26;2.00;;;1.40;;
65073;SDS011;52218;51.224;-2.328;2022-07-30T08:30:08;1.83;;;1.33;;
65073;SDS011;52218;51.224;-2.328;2022-07-30T08:33:51;1.35;;;1.00;;
65073;SDS011;52218;51.224;-2.328;2022-07-30T08:37:33;1.98;;;1.17;;
65073;SDS011;52218;51.224;-2.328;2022-07-30T08:41:16;1.23;;;0.90;;
65073;SDS011;52218;51.224;-2.328;2022-07-30T08:48:43;3.30;;;0.93;;
65073;SDS011;52218;51.224;-2.328;2022-07-30T08:52:27;1.45;;;0.60;;
65073;SDS011;52218;51.224;-2.328;2022-07-30T08:56:11;1.52;;;0.60;;
65073;SDS011;52218;51.224;-2.328;2022-07-30T08:59:53;0.90;;;0.50;;
65073;SDS011;52218;51.224;-2.328;2022-07-30T09:03:41;1.63;;;0.80;;
65073;SDS011;52218;51.224;-2.328;2022-07-30T09:07:24;1.00;;;0.70;;
65073;SDS011;52218;51.224;-2.328;2022-07-30T09:11:06;1.42;;;0.60;;
65073;SDS011;52218;51.224;-2.328;2022-07-30T09:15:00;1.20;;;0.80;;
65073;SDS011;52218;51.224;-2.328;2022-07-30T09:18:52;1.65;;;1.02;;
65073;SDS011;52218;51.224;-2.328;2022-07-30T09:22:41;0.98;;;0.70;;
65073;SDS011;52218;51.224;-2.328;2022-07-30T09:26:26;2.15;;;0.85;;
65073;SDS011;52218;51.224;-2.328;2022-07-30T09:30:09;2.17;;;0.70;;
65073;SDS011;52218;51.224;-2.328;2022-07-30T09:33:51;1.35;;;0.80;;
65073;SDS011;52218;51.224;-2.328;2022-07-30T09:37:34;1.25;;;0.70;;
65073;SDS011;52218;51.224;-2.328;2022-07-30T09:41:17;2.47;;;0.75;;
65073;SDS011;52218;51.224;-2.328;2022-07-30T09:45:18;1.38;;;0.63;;
65073;SDS011;52218;51.224;-2.328;2022-07-30T09:49:12;1.95;;;0.40;;
65073;SDS011;52218;51.224;-2.328;2022-07-30T09:53:03;0.70;;;0.38;;
65073;SDS011;52218;51.224;-2.328;2022-07-30T09:57:01;0.70;;;0.32;;
65073;SDS011;52218;51.224;-2.328;2022-07-30T10:04:29;1.13;;;0.47;;
65073;SDS011;52218;51.224;-2.328;2022-07-30T10:08:12;0.70;;;0.22;;
65073;SDS011;52218;51.224;-2.328;2022-07-30T10:12:00;0.60;;;0.30;;
65073;SDS011;52218;51.224;-2.328;2022-07-30T10:15:45;0.63;;;0.30;;
65073;SDS011;52218;51.224;-2.328;2022-07-30T10:19:27;0.40;;;0.30;;
65073;SDS011;52218;51.224;-2.328;2022-07-30T10:23:22;0.70;;;0.25;;
65073;SDS011;52218;51.224;-2.328;2022-07-30T10:27:07;1.93;;;0.23;;
65073;SDS011;52218;51.224;-2.328;2022-07-30T10:30:52;1.73;;;0.30;;
65073;SDS011;52218;51.224;-2.328;2022-07-30T10:34:36;0.80;;;0.30;;
65073;SDS011;52218;51.224;-2.328;2022-07-30T10:38:23;0.50;;;0.22;;
65073;SDS011;52218;51.224;-2.328;2022-07-30T10:46:30;0.95;;;0.30;;
65073;SDS011;52218;51.224;-2.328;2022-07-30T10:50:16;0.30;;;0.20;;
65073;SDS011;52218;51.224;-2.328;2022-07-30T10:54:02;0.20;;;0.20;;
65073;SDS011;52218;51.224;-2.328;2022-07-30T11:05:33;1.38;;;0.40;;
65073;SDS011;52218;51.224;-2.328;2022-07-30T11:09:38;1.60;;;0.20;;
65073;SDS011;52218;51.224;-2.328;2022-07-30T11:14:05;1.40;;;0.30;;
65073;SDS011;52218;51.224;-2.328;2022-07-30T11:21:39;0.50;;;0.30;;
65073;SDS011;52218;51.224;-2.328;2022-07-30T11:25:37;0.77;;;0.28;;
65073;SDS011;52218;51.224;-2.328;2022-07-30T11:29:31;0.47;;;0.20;;
65073;SDS011;52218;51.224;-2.328;2022-07-30T11:33:31;0.35;;;0.15;;
65073;SDS011;52218;51.224;-2.328;2022-07-30T11:37:13;1.80;;;0.13;;
65073;SDS011;52218;51.224;-2.328;2022-07-30T11:41:11;0.40;;;0.20;;
65073;SDS011;52218;51.224;-2.328;2022-07-30T11:48:58;0.50;;;0.20;;
65073;SDS011;52218;51.224;-2.328;2022-07-30T11:52:49;1.05;;;0.30;;
65073;SDS011;52218;51.224;-2.328;2022-07-30T11:56:49;0.52;;;0.20;;
65073;SDS011;52218;51.224;-2.328;2022-07-30T12:00:44;0.77;;;0.28;;
65073;SDS011;52218;51.224;-2.328;2022-07-30T12:04:28;0.20;;;0.17;;
65073;SDS011;52218;51.224;-2.328;2022-07-30T12:08:11;0.73;;;0.30;;
65073;SDS011;52218;51.224;-2.328;2022-07-30T12:12:20;0.60;;;0.20;;
65073;SDS011;52218;51.224;-2.328;2022-07-30T12:16:08;2.70;;;0.40;;
65073;SDS011;52218;51.224;-2.328;2022-07-30T12:19:50;0.85;;;0.30;;
65073;SDS011;52218;51.224;-2.328;2022-07-30T12:23:33;1.15;;;0.10;;
65073;SDS011;52218;51.224;-2.328;2022-07-30T12:27:15;0.40;;;0.20;;
65073;SDS011;52218;51.224;-2.328;2022-07-30T12:30:58;0.10;;;0.10;;
65073;SDS011;52218;51.224;-2.328;2022-07-30T12:34:52;0.50;;;0.10;;
65073;SDS011;52218;51.224;-2.328;2022-07-30T12:38:42;0.10;;;0.10;;
65073;SDS011;52218;51.224;-2.328;2022-07-30T12:42:30;0.45;;;0.20;;
65073;SDS011;52218;51.224;-2.328;2022-07-30T12:46:14;0.32;;;0.10;;
65073;SDS011;52218;51.224;-2.328;2022-07-30T12:50:16;0.60;;;0.15;;
65073;SDS011;52218;51.224;-2.328;2022-07-30T12:53:58;0.30;;;0.10;;
65073;SDS011;52218;51.224;-2.328;2022-07-30T12:57:55;0.50;;;0.20;;
65073;SDS011;52218;51.224;-2.328;2022-07-30T13:01:42;0.40;;;0.20;;
65073;SDS011;52218;51.224;-2.328;2022-07-30T13:05:45;0.40;;;0.10;;
65073;SDS011;52218;51.224;-2.328;2022-07-30T13:09:28;1.00;;;0.22;;
65073;SDS011;52218;51.224;-2.328;2022-07-30T13:13:10;0.85;;;0.20;;
65073;SDS011;52218;51.224;-2.328;2022-07-30T13:16:52;0.40;;;0.20;;
65073;SDS011;52218;51.224;-2.328;2022-07-30T13:20:39;0.63;;;0.22;;
65073;SDS011;52218;51.224;-2.328;2022-07-30T13:24:21;0.22;;;0.10;;
65073;SDS011;52218;51.224;-2.328;2022-07-30T13:28:03;1.88;;;0.17;;
65073;SDS011;52218;51.224;-2.328;2022-07-30T13:31:45;1.42;;;0.20;;
65073;SDS011;52218;51.224;-2.328;2022-07-30T13:35:27;1.25;;;0.05;;
65073;SDS011;52218;51.224;-2.328;2022-07-30T13:39:09;0.98;;;0.10;;
65073;SDS011;52218;51.224;-2.328;2022-07-30T13:42:52;0.40;;;0.10;;
65073;SDS011;52218;51.224;-2.328;2022-07-30T13:46:34;0.45;;;0.10;;
65073;SDS011;52218;51.224;-2.328;2022-07-30T13:50:16;0.13;;;0.10;;
65073;SDS011;52218;51.224;-2.328;2022-07-30T13:53:59;0.30;;;0.10;;
65073;SDS011;52218;51.224;-2.328;2022-07-30T13:57:41;0.35;;;0.13;;
65073;SDS011;52218;51.224;-2.328;2022-07-30T14:01:25;1.00;;;0.10;;
65073;SDS011;52218;51.224;-2.328;2022-07-30T14:05:07;0.90;;;0.10;;
65073;SDS011;52218;51.224;-2.328;2022-07-30T14:08:49;0.60;;;0.20;;
65073;SDS011;52218;51.224;-2.328;2022-07-30T14:12:32;1.08;;;0.20;;
65073;SDS011;52218;51.224;-2.328;2022-07-30T14:16:15;0.77;;;0.30;;
65073;SDS011;52218;51.224;-2.328;2022-07-30T14:20:17;0.60;;;0.30;;
65073;SDS011;52218;51.224;-2.328;2022-07-30T14:24:00;0.95;;;0.30;;
65073;SDS011;52218;51.224;-2.328;2022-07-30T14:27:44;0.93;;;0.30;;
65073;SDS011;52218;51.224;-2.328;2022-07-30T14:31:28;2.00;;;0.30;;
65073;SDS011;52218;51.224;-2.328;2022-07-30T14:35:10;1.20;;;0.30;;
65073;SDS011;52218;51.224;-2.328;2022-07-30T14:38:53;0.80;;;0.20;;
65073;SDS011;52218;51.224;-2.328;2022-07-30T14:42:37;0.38;;;0.20;;
65073;SDS011;52218;51.224;-2.328;2022-07-30T14:46:20;0.60;;;0.30;;
65073;SDS011;52218;51.224;-2.328;2022-07-30T14:50:02;1.00;;;0.40;;
65073;SDS011;52218;51.224;-2.328;2022-07-30T14:53:45;1.27;;;0.25;;
65073;SDS011;52218;51.224;-2.328;2022-07-30T14:57:27;0.65;;;0.30;;
65073;SDS011;52218;51.224;-2.328;2022-07-30T15:01:09;0.90;;;0.30;;
65073;SDS011;52218;51.224;-2.328;2022-07-30T15:04:57;1.73;;;0.28;;
65073;SDS011;52218;51.224;-2.328;2022-07-30T15:08:39;1.08;;;0.35;;
65073;SDS011;52218;51.224;-2.328;2022-07-30T15:12:21;1.00;;;0.30;;
65073;SDS011;52218;51.224;-2.328;2022-07-30T15:16:07;0.82;;;0.32;;
65073;SDS011;52218;51.224;-2.328;2022-07-30T15:19:51;1.00;;;0.40;;
65073;SDS011;52218;51.224;-2.328;2022-07-30T15:23:33;0.90;;;0.30;;
65073;SDS011;52218;51.224;-2.328;2022-07-30T15:27:15;1.00;;;0.40;;
65073;SDS011;52218;51.224;-2.328;2022-07-30T15:30:57;1.48;;;0.40;;
65073;SDS011;52218;51.224;-2.328;2022-07-30T15:34:39;0.82;;;0.40;;
65073;SDS011;52218;51.224;-2.328;2022-07-30T15:38:21;1.27;;;0.40;;
65073;SDS011;52218;51.224;-2.328;2022-07-30T15:42:03;1.17;;;0.40;;
65073;SDS011;52218;51.224;-2.328;2022-07-30T15:45:46;0.80;;;0.30;;
65073;SDS011;52218;51.224;-2.328;2022-07-30T15:49:36;1.15;;;0.50;;
65073;SDS011;52218;51.224;-2.328;2022-07-30T15:53:18;0.77;;;0.40;;
65073;SDS011;52218;51.224;-2.328;2022-07-30T15:57:00;1.02;;;0.40;;
65073;SDS011;52218;51.224;-2.328;2022-07-30T16:00:42;1.10;;;0.40;;
65073;SDS011;52218;51.224;-2.328;2022-07-30T16:04:24;0.57;;;0.35;;
65073;SDS011;52218;51.224;-2.328;2022-07-30T16:08:12;1.45;;;0.70;;
65073;SDS011;52218;51.224;-2.328;2022-07-30T16:11:57;2.92;;;0.40;;
65073;SDS011;52218;51.224;-2.328;2022-07-30T16:15:39;0.70;;;0.40;;
65073;SDS011;52218;51.224;-2.328;2022-07-30T16:19:22;1.92;;;0.60;;
65073;SDS011;52218;51.224;-2.328;2022-07-30T16:23:04;0.77;;;0.40;;
65073;SDS011;52218;51.224;-2.328;2022-07-30T16:26:53;0.85;;;0.38;;
65073;SDS011;52218;51.224;-2.328;2022-07-30T16:30:35;0.80;;;0.35;;
65073;SDS011;52218;51.224;-2.328;2022-07-30T16:34:31;1.92;;;0.30;;
65073;SDS011;52218;51.224;-2.328;2022-07-30T16:38:13;1.45;;;0.40;;
65073;SDS011;52218;51.224;-2.328;2022-07-30T16:41:55;2.55;;;0.65;;
65073;SDS011;52218;51.224;-2.328;2022-07-30T16:45:37;1.05;;;0.50;;
65073;SDS011;52218;51.224;-2.328;2022-07-30T16:49:19;0.98;;;0.40;;
65073;SDS011;52218;51.224;-2.328;2022-07-30T16:53:02;1.67;;;0.60;;
65073;SDS011;52218;51.224;-2.328;2022-07-30T16:56:52;1.00;;;0.50;;
65073;SDS011;52218;51.224;-2.328;2022-07-30T17:00:33;0.95;;;0.40;;
65073;SDS011;52218;51.224;-2.328;2022-07-30T17:04:16;1.10;;;0.40;;
65073;SDS011;52218;51.224;-2.328;2022-07-30T17:07:58;1.58;;;0.40;;
65073;SDS011;52218;51.224;-2.328;2022-07-30T17:11:40;1.02;;;0.45;;
65073;SDS011;52218;51.224;-2.328;2022-07-30T17:15:32;1.02;;;0.50;;
65073;SDS011;52218;51.224;-2.328;2022-07-30T17:19:14;0.98;;;0.40;;
65073;SDS011;52218;51.224;-2.328;2022-07-30T17:22:56;2.55;;;0.40;;
65073;SDS011;52218;51.224;-2.328;2022-07-30T17:26:39;0.43;;;0.32;;
65073;SDS011;52218;51.224;-2.328;2022-07-30T17:30:27;1.30;;;0.47;;
65073;SDS011;52218;51.224;-2.328;2022-07-30T17:34:10;1.05;;;0.30;;
65073;SDS011;52218;51.224;-2.328;2022-07-30T17:37:54;1.33;;;0.50;;
65073;SDS011;52218;51.224;-2.328;2022-07-30T17:41:36;1.73;;;0.45;;
65073;SDS011;52218;51.224;-2.328;2022-07-30T17:45:38;1.20;;;0.40;;
65073;SDS011;52218;51.224;-2.328;2022-07-30T17:49:21;2.28;;;0.40;;
65073;SDS011;52218;51.224;-2.328;2022-07-30T17:53:03;1.17;;;0.50;;
65073;SDS011;52218;51.224;-2.328;2022-07-30T17:56:46;1.25;;;0.50;;
65073;SDS011;52218;51.224;-2.328;2022-07-30T18:00:28;0.82;;;0.40;;
65073;SDS011;52218;51.224;-2.328;2022-07-30T18:04:10;0.95;;;0.50;;
65073;SDS011;52218;51.224;-2.328;2022-07-30T18:07:52;1.02;;;0.47;;
65073;SDS011;52218;51.224;-2.328;2022-07-30T18:11:34;2.22;;;0.60;;
65073;SDS011;52218;51.224;-2.328;2022-07-30T18:15:16;1.15;;;0.40;;
65073;SDS011;52218;51.224;-2.328;2022-07-30T18:18:58;0.80;;;0.40;;
65073;SDS011;52218;51.224;-2.328;2022-07-30T18:22:40;0.52;;;0.30;;
65073;SDS011;52218;51.224;-2.328;2022-07-30T18:26:24;1.50;;;0.43;;
65073;SDS011;52218;51.224;-2.328;2022-07-30T18:30:06;3.45;;;1.10;;
65073;SDS011;52218;51.224;-2.328;2022-07-30T18:33:49;1.70;;;0.75;;
65073;SDS011;52218;51.224;-2.328;2022-07-30T18:37:31;1.23;;;0.50;;
65073;SDS011;52218;51.224;-2.328;2022-07-30T18:41:22;0.55;;;0.30;;
65073;SDS011;52218;51.224;-2.328;2022-07-30T18:45:04;1.15;;;0.50;;
65073;SDS011;52218;51.224;-2.328;2022-07-30T18:48:47;1.85;;;0.50;;
65073;SDS011;52218;51.224;-2.328;2022-07-30T18:52:29;1.25;;;0.57;;
65073;SDS011;52218;51.224;-2.328;2022-07-30T18:56:11;3.22;;;0.60;;
65073;SDS011;52218;51.224;-2.328;2022-07-30T18:59:53;2.72;;;0.50;;
65073;SDS011;52218;51.224;-2.328;2022-07-30T19:03:35;1.00;;;0.43;;
65073;SDS011;52218;51.224;-2.328;2022-07-30T19:07:17;0.77;;;0.47;;
65073;SDS011;52218;51.224;-2.328;2022-07-30T19:10:59;1.48;;;0.50;;
65073;SDS011;52218;51.224;-2.328;2022-07-30T19:14:41;0.90;;;0.50;;
65073;SDS011;52218;51.224;-2.328;2022-07-30T19:18:24;2.55;;;0.50;;
65073;SDS011;52218;51.224;-2.328;2022-07-30T19:22:06;1.35;;;0.68;;
65073;SDS011;52218;51.224;-2.328;2022-07-30T19:25:48;0.70;;;0.40;;
65073;SDS011;52218;51.224;-2.328;2022-07-30T19:29:30;1.05;;;0.50;;
65073;SDS011;52218;51.224;-2.328;2022-07-30T19:33:13;3.78;;;0.60;;
65073;SDS011;52218;51.224;-2.328;2022-07-30T19:36:56;2.17;;;0.60;;
65073;SDS011;52218;51.224;-2.328;2022-07-30T19:40:38;1.42;;;0.70;;
65073;SDS011;52218;51.224;-2.328;2022-07-30T19:44:20;0.77;;;0.50;;
65073;SDS011;52218;51.224;-2.328;2022-07-30T19:48:02;0.80;;;0.50;;
65073;SDS011;52218;51.224;-2.328;2022-07-30T19:51:45;1.13;;;0.60;;
65073;SDS011;52218;51.224;-2.328;2022-07-30T19:55:47;1.08;;;0.60;;
65073;SDS011;52218;51.224;-2.328;2022-07-30T19:59:29;0.85;;;0.50;;
65073;SDS011;52218;51.224;-2.328;2022-07-30T20:03:31;1.27;;;0.60;;
65073;SDS011;52218;51.224;-2.328;2022-07-30T20:07:13;0.75;;;0.50;;
65073;SDS011;52218;51.224;-2.328;2022-07-30T20:10:55;1.70;;;0.50;;
65073;SDS011;52218;51.224;-2.328;2022-07-30T20:14:39;2.08;;;0.60;;
65073;SDS011;52218;51.224;-2.328;2022-07-30T20:18:23;1.38;;;0.60;;
65073;SDS011;52218;51.224;-2.328;2022-07-30T20:22:09;1.58;;;0.88;;
65073;SDS011;52218;51.224;-2.328;2022-07-30T20:25:53;1.23;;;0.60;;
65073;SDS011;52218;51.224;-2.328;2022-07-30T20:29:35;1.30;;;0.70;;
65073;SDS011;52218;51.224;-2.328;2022-07-30T20:33:18;1.77;;;0.80;;
65073;SDS011;52218;51.224;-2.328;2022-07-30T20:37:16;1.73;;;0.70;;
65073;SDS011;52218;51.224;-2.328;2022-07-30T20:41:03;2.42;;;0.80;;
65073;SDS011;52218;51.224;-2.328;2022-07-30T20:44:50;2.58;;;0.80;;
65073;SDS011;52218;51.224;-2.328;2022-07-30T20:48:37;1.63;;;1.00;;
65073;SDS011;52218;51.224;-2.328;2022-07-30T20:52:19;2.33;;;0.88;;
65073;SDS011;52218;51.224;-2.328;2022-07-30T20:56:01;1.80;;;0.80;;
65073;SDS011;52218;51.224;-2.328;2022-07-30T20:59:44;1.50;;;0.70;;
65073;SDS011;52218;51.224;-2.328;2022-07-30T21:03:26;1.48;;;0.80;;
65073;SDS011;52218;51.224;-2.328;2022-07-30T21:07:09;2.40;;;0.82;;
65073;SDS011;52218;51.224;-2.328;2022-07-30T21:10:51;1.17;;;0.77;;
65073;SDS011;52218;51.224;-2.328;2022-07-30T21:14:35;1.52;;;0.60;;
65073;SDS011;52218;51.224;-2.328;2022-07-30T21:18:17;1.10;;;0.57;;
65073;SDS011;52218;51.224;-2.328;2022-07-30T21:22:01;1.77;;;0.60;;
65073;SDS011;52218;51.224;-2.328;2022-07-30T21:25:43;1.00;;;0.50;;
65073;SDS011;52218;51.224;-2.328;2022-07-30T21:29:43;1.15;;;0.50;;
65073;SDS011;52218;51.224;-2.328;2022-07-30T21:33:25;2.35;;;0.60;;
65073;SDS011;52218;51.224;-2.328;2022-07-30T21:37:11;0.75;;;0.60;;
65073;SDS011;52218;51.224;-2.328;2022-07-30T21:40:56;1.30;;;0.60;;
65073;SDS011;52218;51.224;-2.328;2022-07-30T21:44:38;2.17;;;0.70;;
65073;SDS011;52218;51.224;-2.328;2022-07-30T21:48:20;1.38;;;0.63;;
65073;SDS011;52218;51.224;-2.328;2022-07-30T21:52:03;1.60;;;0.60;;
65073;SDS011;52218;51.224;-2.328;2022-07-30T21:55:48;0.60;;;0.40;;
65073;SDS011;52218;51.224;-2.328;2022-07-30T21:59:33;1.60;;;0.50;;
65073;SDS011;52218;51.224;-2.328;2022-07-30T22:03:16;1.00;;;0.50;;
65073;SDS011;52218;51.224;-2.328;2022-07-30T22:07:19;1.48;;;0.55;;
65073;SDS011;52218;51.224;-2.328;2022-07-30T22:11:21;1.55;;;0.65;;
65073;SDS011;52218;51.224;-2.328;2022-07-30T22:15:03;1.05;;;0.60;;
65073;SDS011;52218;51.224;-2.328;2022-07-30T22:18:46;1.08;;;0.50;;
65073;SDS011;52218;51.224;-2.328;2022-07-30T22:22:28;1.10;;;0.50;;
65073;SDS011;52218;51.224;-2.328;2022-07-30T22:26:16;1.52;;;0.60;;
65073;SDS011;52218;51.224;-2.328;2022-07-30T22:29:58;1.50;;;0.60;;
65073;SDS011;52218;51.224;-2.328;2022-07-30T22:33:40;1.35;;;0.60;;
65073;SDS011;52218;51.224;-2.328;2022-07-30T22:37:22;1.48;;;0.57;;
65073;SDS011;52218;51.224;-2.328;2022-07-30T22:41:11;1.85;;;0.55;;